Terminal Aerodrome Forecast
Issued by NWS Louisville, KY

Home | Current Version | Previous Version | Text Only | Print | Product List | Glossary On
Versions: 1 2 3 4 5 6 7 8 9 10 11 12 13 14 15 16
455
FTUS43 KLMK 162320
TAFLEX
TAF
KLEX 162320Z 1700/1724 19007KT P6SM BKN250
     FM170600 20008KT P6SM SCT200 WS017/23038KT
     FM171300 22013G20KT P6SM FEW250=

USA.gov is the U.S. government's official web portal to all federal, state and local government web resources and services.